createdAt,value
2022-11-17T00:00:02.916Z,3.81
2022-11-17T00:05:03.447Z,3.8
2022-11-17T00:10:03.338Z,3.79
2022-11-17T00:15:02.863Z,3.76
2022-11-17T00:20:02.712Z,3.73
2022-11-17T00:25:03.280Z,3.66
2022-11-17T00:30:03.170Z,3.63
2022-11-17T00:35:02.685Z,3.63
2022-11-17T00:40:03.533Z,3.61
2022-11-17T00:45:02.967Z,3.57
2022-11-17T00:50:02.881Z,3.59
2022-11-17T00:55:04.587Z,3.6
2022-11-17T01:00:03.243Z,3.58
2022-11-17T01:05:03.125Z,3.56
2022-11-17T01:10:02.584Z,3.58
2022-11-17T01:15:03.684Z,3.56
2022-11-17T01:20:02.760Z,3.52
2022-11-17T01:25:03.529Z,3.52
2022-11-17T01:30:14.003Z,3.45
2022-11-17T01:35:02.589Z,3.41
2022-11-17T01:40:03.089Z,3.4
2022-11-17T01:45:02.730Z,3.37
2022-11-17T01:50:03.343Z,3.31
2022-11-17T01:55:04.324Z,3.25
2022-11-17T02:00:02.722Z,3.19
2022-11-17T02:05:02.571Z,3.18
2022-11-17T02:10:03.351Z,3.18
2022-11-17T02:15:03.397Z,3.14
2022-11-17T02:20:02.916Z,3.09
2022-11-17T02:25:02.964Z,3.04
2022-11-17T02:30:02.868Z,3
2022-11-17T02:35:03.289Z,2.96
2022-11-17T02:40:02.883Z,2.91
2022-11-17T02:45:03.180Z,2.93
2022-11-17T02:50:02.963Z,2.9
2022-11-17T02:55:04.166Z,2.92
2022-11-17T03:00:03.402Z,2.93
2022-11-17T03:05:03.183Z,2.89
2022-11-17T03:10:02.938Z,2.85
2022-11-17T03:15:02.741Z,2.81
2022-11-17T03:20:03.430Z,2.77
2022-11-17T03:25:03.081Z,2.75
2022-11-17T03:30:03.108Z,2.72
2022-11-17T03:35:02.899Z,2.69
2022-11-17T03:40:03.463Z,2.66
2022-11-17T03:45:03.363Z,2.64
2022-11-17T03:50:02.859Z,2.62
2022-11-17T03:55:04.103Z,2.6
2022-11-17T04:00:03.161Z,2.62
2022-11-17T04:05:02.853Z,2.63
2022-11-17T04:10:02.556Z,2.61
2022-11-17T04:15:03.614Z,2.61
2022-11-17T04:20:02.965Z,2.6
2022-11-17T04:25:03.059Z,2.58
2022-11-17T04:30:02.686Z,2.58
2022-11-17T04:35:02.575Z,2.58
2022-11-17T04:40:03.348Z,2.61
2022-11-17T04:45:03.083Z,2.61
2022-11-17T04:50:02.743Z,2.58
2022-11-17T04:55:04.830Z,2.57
2022-11-17T05:00:03.121Z,2.58
2022-11-17T05:05:03.001Z,2.6
2022-11-17T05:10:02.702Z,2.63
2022-11-17T05:15:03.426Z,2.65
2022-11-17T05:20:02.871Z,2.65
2022-11-17T05:25:02.875Z,2.67
2022-11-17T05:30:02.738Z,2.69
2022-11-17T05:35:03.464Z,2.71
2022-11-17T05:40:03.404Z,2.71
2022-11-17T05:45:02.711Z,2.74
2022-11-17T05:50:02.510Z,2.74
2022-11-17T05:55:04.429Z,2.76
2022-11-17T06:00:02.778Z,2.78
2022-11-17T06:05:02.591Z,2.78
2022-11-17T06:10:03.318Z,2.83
2022-11-17T06:15:02.672Z,2.83
2022-11-17T06:20:03.413Z,2.86
2022-11-17T06:25:03.051Z,2.86
2022-11-17T06:30:02.860Z,2.84
2022-11-17T06:35:02.562Z,2.86
2022-11-17T06:40:03.352Z,2.89
2022-11-17T06:45:03.121Z,2.9
2022-11-17T06:50:02.840Z,2.96
2022-11-17T06:55:04.130Z,3.03
2022-11-17T07:00:03.123Z,3.09
2022-11-17T07:05:03.244Z,3.18
2022-11-17T07:10:03.165Z,3.21
2022-11-17T07:15:02.938Z,3.26
2022-11-17T07:20:02.275Z,3.31
2022-11-17T07:25:03.329Z,3.36
2022-11-17T07:30:03.069Z,3.4
2022-11-17T07:35:03.035Z,3.43
2022-11-17T07:40:02.977Z,3.44
2022-11-17T07:45:03.054Z,3.44
2022-11-17T07:50:02.713Z,3.49
2022-11-17T07:55:04.715Z,3.51
2022-11-17T08:00:03.203Z,3.55
2022-11-17T08:05:02.615Z,3.56
2022-11-17T08:10:03.507Z,3.57
2022-11-17T08:15:03.257Z,3.59
2022-11-17T08:20:02.957Z,3.63
2022-11-17T08:25:02.936Z,3.7
2022-11-17T08:30:02.545Z,3.74
2022-11-17T08:35:02.720Z,3.8
2022-11-17T08:40:03.334Z,3.83
2022-11-17T08:45:03.044Z,3.88
2022-11-17T08:50:02.761Z,3.87
2022-11-17T08:55:04.268Z,3.92
2022-11-17T09:00:03.361Z,3.94
2022-11-17T09:05:03.063Z,3.99
2022-11-17T09:10:02.733Z,4.01
2022-11-17T09:15:03.547Z,4.06
2022-11-17T09:20:03.106Z,4.07
2022-11-17T09:25:02.946Z,4.13
2022-11-17T09:30:02.872Z,4.12
2022-11-17T09:35:03.482Z,4.11
2022-11-17T09:40:02.523Z,4.13
2022-11-17T09:45:02.572Z,4.16
2022-11-17T09:50:03.339Z,4.19
2022-11-17T09:55:03.767Z,4.2
2022-11-17T10:00:02.393Z,4.22
2022-11-17T10:05:03.299Z,4.26
2022-11-17T10:10:02.849Z,4.26
2022-11-17T10:15:02.723Z,4.29
2022-11-17T10:20:03.454Z,4.3
2022-11-17T10:25:03.132Z,4.32
2022-11-17T10:30:03.145Z,4.35
2022-11-17T10:35:02.908Z,4.4
2022-11-17T10:40:02.673Z,4.44
2022-11-17T10:45:03.397Z,4.42
2022-11-17T10:50:02.928Z,4.45
2022-11-17T10:55:03.727Z,4.47
2022-11-17T11:00:02.621Z,4.49
2022-11-17T11:05:03.297Z,4.45
2022-11-17T11:10:03.128Z,4.38
2022-11-17T11:15:03.234Z,4.3
2022-11-17T11:20:03.083Z,4.16
2022-11-17T11:25:02.793Z,4.02
2022-11-17T11:30:03.412Z,4.01
2022-11-17T11:35:03.123Z,3.96
2022-11-17T11:40:02.698Z,3.9
2022-11-17T11:45:02.607Z,3.88
2022-11-17T11:50:03.209Z,3.95
2022-11-17T11:55:04.323Z,3.99
2022-11-17T12:00:05.352Z,3.97
2022-11-17T12:05:03.131Z,4
2022-11-17T12:10:03.052Z,4.02
2022-11-17T12:15:02.853Z,4.07
2022-11-17T12:20:11.335Z,4.09
2022-11-17T12:25:03.080Z,4.08
2022-11-17T12:30:02.787Z,4.06
2022-11-17T12:35:02.637Z,4.05
2022-11-17T12:40:03.427Z,4.07
2022-11-17T12:45:03.492Z,4.08
2022-11-17T12:50:03.116Z,4.02
2022-11-17T12:55:03.673Z,3.99
2022-11-17T13:00:02.570Z,3.96
2022-11-17T13:05:03.287Z,3.92
2022-11-17T13:10:03.031Z,3.9
2022-11-17T13:15:03.022Z,3.91
2022-11-17T13:20:02.417Z,3.89
2022-11-17T13:25:03.468Z,3.9
2022-11-17T13:30:03.413Z,3.9
2022-11-17T13:35:02.844Z,3.87
2022-11-17T13:40:02.556Z,3.85
2022-11-17T13:45:03.460Z,3.86
2022-11-17T13:50:03.008Z,3.85
2022-11-17T13:55:03.888Z,3.87
2022-11-17T14:00:02.555Z,3.86
2022-11-17T14:05:02.578Z,3.85
2022-11-17T14:10:12.889Z,3.85
2022-11-17T14:15:02.803Z,3.83
2022-11-17T14:20:03.328Z,3.86
2022-11-17T14:25:08.300Z,3.88
2022-11-17T14:30:03.250Z,3.81
2022-11-17T14:35:03.047Z,3.74
2022-11-17T14:40:03.140Z,3.71
2022-11-17T14:45:02.770Z,3.68
2022-11-17T14:50:02.701Z,3.68
2022-11-17T14:55:04.232Z,3.65
2022-11-17T15:00:03.426Z,3.63
2022-11-17T15:05:02.987Z,3.6
2022-11-17T15:10:02.716Z,3.59
2022-11-17T15:15:03.409Z,3.57
2022-11-17T15:20:03.325Z,3.57
2022-11-17T15:25:03.249Z,3.54
2022-11-17T15:30:03.046Z,3.52
2022-11-17T15:35:02.624Z,3.52
2022-11-17T15:40:02.560Z,3.53
2022-11-17T15:45:03.150Z,3.54
2022-11-17T15:50:02.925Z,3.49
2022-11-17T15:55:03.934Z,3.47
2022-11-17T16:00:03.428Z,3.48
2022-11-17T16:05:03.022Z,3.51
2022-11-17T16:10:02.922Z,3.48
2022-11-17T16:15:02.690Z,3.51
2022-11-17T16:20:03.626Z,3.47
2022-11-17T16:25:02.507Z,3.44
2022-11-17T16:30:03.143Z,3.41
2022-11-17T16:35:02.976Z,3.37
2022-11-17T16:40:02.767Z,3.38
2022-11-17T16:45:03.491Z,3.37
2022-11-17T16:50:03.274Z,3.35
2022-11-17T16:55:05.848Z,3.35
2022-11-17T17:00:02.731Z,3.35
2022-11-17T17:05:03.629Z,3.35
2022-11-17T17:10:03.375Z,3.32
2022-11-17T17:15:03.091Z,3.34
2022-11-17T17:20:02.677Z,3.32
2022-11-17T17:25:02.511Z,3.32
2022-11-17T17:30:03.452Z,3.27
2022-11-17T17:35:03.315Z,3.27
2022-11-17T17:40:03.078Z,3.24
2022-11-17T17:45:02.751Z,3.21
2022-11-17T17:50:02.574Z,3.18
2022-11-17T17:55:04.624Z,3.18
2022-11-17T18:00:03.182Z,3.16
2022-11-17T18:05:02.918Z,3.15
2022-11-17T18:10:02.541Z,3.16
2022-11-17T18:15:03.302Z,3.15
2022-11-17T18:20:02.982Z,3.18
2022-11-17T18:25:09.803Z,3.17
2022-11-17T18:30:03.144Z,3.15
2022-11-17T18:35:02.511Z,3.16
2022-11-17T18:40:02.521Z,3.18
2022-11-17T18:45:03.348Z,3.18
2022-11-17T18:50:03.441Z,3.18
2022-11-17T18:55:03.799Z,3.22
2022-11-17T19:00:03.511Z,3.25
2022-11-17T19:05:03.024Z,3.24
2022-11-17T19:10:02.918Z,3.22
2022-11-17T19:15:02.655Z,3.22
2022-11-17T19:20:03.328Z,3.22
2022-11-17T19:25:03.183Z,3.23
2022-11-17T19:30:02.876Z,3.2
2022-11-17T19:35:22.765Z,3.22
2022-11-17T19:40:02.639Z,3.2
2022-11-17T19:45:03.391Z,3.21
2022-11-17T19:50:03.004Z,3.18
2022-11-17T19:55:04.136Z,3.16
2022-11-17T20:00:03.469Z,3.13
2022-11-17T20:05:11.218Z,3.12
2022-11-17T20:10:02.930Z,3.1
2022-11-17T20:15:02.551Z,3.08
2022-11-17T20:20:03.414Z,3.04
2022-11-17T20:25:04.175Z,3
2022-11-17T20:30:03.036Z,2.97
2022-11-17T20:35:02.650Z,2.91
2022-11-17T20:40:03.375Z,2.85
2022-11-17T20:45:03.224Z,2.83
2022-11-17T20:50:02.888Z,2.83
2022-11-17T20:55:03.543Z,2.84
2022-11-17T21:00:03.296Z,2.85
2022-11-17T21:05:02.716Z,2.85
2022-11-17T21:10:03.265Z,2.82
2022-11-17T21:15:03.014Z,2.84
2022-11-17T21:20:02.693Z,2.87
2022-11-17T21:25:03.309Z,2.87
2022-11-17T21:30:03.085Z,2.88
2022-11-17T21:35:02.576Z,2.86
2022-11-17T21:40:03.452Z,2.86
2022-11-17T21:45:02.896Z,2.87
2022-11-17T21:50:02.653Z,2.87
2022-11-17T21:55:03.847Z,2.88
2022-11-17T22:00:03.128Z,2.88
2022-11-17T22:05:02.791Z,2.88
2022-11-17T22:10:02.531Z,2.85
2022-11-17T22:15:12.031Z,2.82
2022-11-17T22:20:02.789Z,2.82
2022-11-17T22:25:45.740Z,2.81
2022-11-17T22:30:02.691Z,2.78
2022-11-17T22:35:02.772Z,2.78
2022-11-17T22:40:02.558Z,2.77
2022-11-17T22:45:03.321Z,2.76
2022-11-17T22:50:02.988Z,2.74
2022-11-17T22:55:04.142Z,2.72
2022-11-17T23:00:03.685Z,2.7
2022-11-17T23:05:03.002Z,2.68
2022-11-17T23:10:02.860Z,2.65
2022-11-17T23:15:02.475Z,2.64
2022-11-17T23:20:03.459Z,2.64
2022-11-17T23:25:03.040Z,2.62
2022-11-17T23:30:02.519Z,2.62
2022-11-17T23:35:03.451Z,2.62
2022-11-17T23:40:03.014Z,2.6
2022-11-17T23:45:03.117Z,2.58
2022-11-17T23:50:02.489Z,2.58
2022-11-17T23:55:04.862Z,2.58
